createdAt,value
2024-02-27T00:00:02.835Z,17.86
2024-02-27T00:02:56.245Z,17.37
2024-02-27T00:05:43.098Z,17.69
2024-02-27T00:08:30.069Z,17.74
2024-02-27T00:11:18.511Z,17.80
2024-02-27T00:14:05.303Z,17.79
2024-02-27T00:16:52.237Z,17.33
2024-02-27T00:19:39.220Z,17.73
2024-02-27T00:22:26.033Z,17.92
2024-02-27T00:25:13.363Z,17.68
2024-02-27T00:28:01.482Z,17.58
2024-02-27T00:30:48.476Z,17.51
2024-02-27T00:33:35.557Z,17.50
2024-02-27T00:36:22.596Z,17.32
2024-02-27T00:39:09.594Z,17.54
2024-02-27T00:41:58.623Z,17.47
2024-02-27T00:44:47.028Z,18.08
2024-02-27T00:47:34.018Z,17.72
2024-02-27T00:50:20.785Z,17.81
2024-02-27T00:53:08.479Z,17.96
2024-02-27T00:55:55.270Z,17.83
2024-02-27T00:58:44.937Z,17.91
2024-02-27T01:01:33.442Z,17.77
2024-02-27T01:04:20.221Z,17.49
2024-02-27T01:07:07.502Z,17.31
2024-02-27T01:09:54.830Z,17.47
2024-02-27T01:12:41.688Z,17.62
2024-02-27T01:15:28.549Z,17.69
2024-02-27T01:18:17.123Z,17.64
2024-02-27T01:21:06.359Z,17.55
2024-02-27T01:23:52.975Z,17.51
2024-02-27T01:26:39.947Z,17.67
2024-02-27T01:29:27.209Z,17.53
2024-02-27T01:32:13.763Z,17.55
2024-02-27T01:35:02.393Z,17.48
2024-02-27T01:37:49.758Z,17.70
2024-02-27T01:40:36.506Z,17.54
2024-02-27T01:43:24.094Z,17.39
2024-02-27T01:46:16.195Z,17.88
2024-02-27T01:49:04.222Z,17.66
2024-02-27T01:51:52.446Z,17.82
2024-02-27T01:54:39.335Z,17.59
2024-02-27T01:57:25.934Z,17.55
2024-02-27T02:00:16.024Z,17.64
2024-02-27T02:03:03.514Z,17.79
2024-02-27T02:05:50.672Z,17.91
2024-02-27T02:08:39.404Z,17.83
2024-02-27T02:11:26.071Z,17.64
2024-02-27T02:14:13.032Z,17.68
2024-02-27T02:16:59.692Z,17.64
2024-02-27T02:19:46.720Z,17.64
2024-02-27T02:22:35.569Z,17.62
2024-02-27T02:25:23.148Z,17.97
2024-02-27T02:28:10.441Z,18.06
2024-02-27T02:30:57.378Z,17.61
2024-02-27T02:33:44.407Z,17.63
2024-02-27T02:36:31.157Z,17.72
2024-02-27T02:39:19.251Z,17.65
2024-02-27T02:42:06.464Z,17.74
2024-02-27T02:44:53.016Z,17.64
2024-02-27T02:47:39.984Z,17.47
2024-02-27T02:50:30.902Z,17.57
2024-02-27T02:53:17.812Z,17.49
2024-02-27T02:56:06.896Z,17.59
2024-02-27T02:58:53.801Z,17.67
2024-02-27T03:01:40.805Z,17.99
2024-02-27T03:04:27.697Z,18.15
2024-02-27T03:07:14.510Z,18.06
2024-02-27T03:10:01.288Z,17.54
2024-02-27T03:12:49.627Z,17.47
2024-02-27T03:15:36.587Z,17.52
2024-02-27T03:18:23.613Z,17.84
2024-02-27T03:21:10.585Z,17.84
2024-02-27T03:23:57.118Z,17.72
2024-02-27T03:26:43.946Z,17.43
2024-02-27T03:29:32.546Z,17.62
2024-02-27T03:32:21.193Z,17.23
2024-02-27T03:35:10.006Z,17.41
2024-02-27T03:37:56.825Z,17.66
2024-02-27T03:40:43.596Z,17.76
2024-02-27T03:43:31.121Z,17.65
2024-02-27T03:46:19.410Z,17.18
2024-02-27T03:49:06.125Z,17.58
2024-02-27T03:51:54.465Z,17.50
2024-02-27T03:54:41.398Z,17.64
2024-02-27T03:57:28.661Z,17.71
2024-02-27T04:00:16.304Z,17.60
2024-02-27T04:03:04.426Z,17.42
2024-02-27T04:05:50.930Z,17.57
2024-02-27T04:08:37.827Z,17.84
2024-02-27T04:11:24.887Z,17.61
2024-02-27T04:14:11.647Z,17.68
2024-02-27T04:16:58.551Z,17.19
2024-02-27T04:19:47.069Z,16.99
2024-02-27T04:22:34.433Z,17.24
2024-02-27T04:25:21.110Z,17.53
2024-02-27T04:28:08.059Z,17.35
2024-02-27T04:30:55.079Z,17.06
2024-02-27T04:33:42.250Z,17.23
2024-02-27T04:36:30.541Z,17.58
2024-02-27T04:39:17.865Z,17.58
2024-02-27T04:42:05.360Z,17.46
2024-02-27T04:44:52.097Z,17.67
2024-02-27T04:47:39.212Z,17.37
2024-02-27T04:50:26.020Z,17.72
2024-02-27T04:53:14.092Z,17.43
2024-02-27T04:56:01.016Z,17.69
2024-02-27T04:58:47.964Z,17.38
2024-02-27T05:01:34.778Z,17.51
2024-02-27T05:04:21.727Z,17.62
2024-02-27T05:07:08.547Z,17.63
2024-02-27T05:09:56.619Z,17.47
2024-02-27T05:12:43.387Z,17.16
2024-02-27T05:15:30.472Z,17.55
2024-02-27T05:18:17.423Z,17.20
2024-02-27T05:21:06.056Z,17.34
2024-02-27T05:23:52.635Z,17.35
2024-02-27T05:26:40.813Z,17.19
2024-02-27T05:29:27.794Z,17.27
2024-02-27T05:32:14.497Z,17.31
2024-02-27T05:35:01.676Z,16.93
2024-02-27T05:37:50.050Z,17.19
2024-02-27T05:40:36.626Z,17.16
2024-02-27T05:43:24.883Z,17.18
2024-02-27T05:46:12.052Z,17.24
2024-02-27T05:48:59.865Z,17.03
2024-02-27T05:51:46.579Z,17.09
2024-02-27T05:54:33.504Z,17.42
2024-02-27T05:57:20.559Z,17.45
2024-02-27T06:00:11.234Z,17.17
2024-02-27T06:02:59.049Z,17.28
2024-02-27T06:05:46.965Z,17.41
2024-02-27T06:08:35.830Z,17.91
2024-02-27T06:11:22.478Z,17.31
2024-02-27T06:14:09.331Z,17.22
2024-02-27T06:16:57.705Z,17.51
2024-02-27T06:19:50.953Z,17.11
2024-02-27T06:22:37.202Z,17.59
2024-02-27T06:25:24.207Z,17.37
2024-02-27T06:28:11.144Z,17.85
2024-02-27T06:30:58.150Z,17.92
2024-02-27T06:33:46.482Z,17.82
2024-02-27T06:36:33.385Z,17.49
2024-02-27T06:39:19.942Z,17.66
2024-02-27T06:42:07.096Z,17.72
2024-02-27T06:44:53.615Z,17.47
2024-02-27T06:47:41.667Z,17.77
2024-02-27T06:50:31.412Z,18.02
2024-02-27T06:53:18.631Z,17.63
2024-02-27T06:56:06.091Z,17.96
2024-02-27T06:58:55.238Z,17.87
2024-02-27T07:01:42.036Z,18.03
2024-02-27T07:04:28.933Z,17.46
2024-02-27T07:07:17.340Z,17.78
2024-02-27T07:10:04.338Z,18.28
2024-02-27T07:12:51.220Z,18.44
2024-02-27T07:15:41.021Z,18.02
2024-02-27T07:18:30.062Z,18.08
2024-02-27T07:21:20.696Z,18.26
2024-02-27T07:24:09.109Z,18.49
2024-02-27T07:26:55.721Z,18.09
2024-02-27T07:29:42.499Z,18.25
2024-02-27T07:32:30.604Z,18.38
2024-02-27T07:35:17.399Z,17.99
2024-02-27T07:38:04.201Z,18.00
2024-02-27T07:40:53.313Z,17.97
2024-02-27T07:43:40.307Z,18.70
2024-02-27T07:46:27.134Z,18.60
2024-02-27T07:49:14.014Z,18.75
2024-02-27T07:52:00.967Z,18.84
2024-02-27T07:54:47.907Z,18.42
2024-02-27T07:57:36.126Z,18.52
2024-02-27T08:00:22.913Z,17.96
2024-02-27T08:03:09.657Z,18.71
2024-02-27T08:05:57.010Z,18.72
2024-02-27T08:08:43.906Z,18.71
2024-02-27T08:11:31.005Z,18.26
2024-02-27T08:14:19.155Z,18.59
2024-02-27T08:17:07.257Z,18.91
2024-02-27T08:19:54.228Z,18.42
2024-02-27T08:22:50.574Z,18.33
2024-02-27T08:25:40.062Z,18.99
2024-02-27T08:28:27.587Z,18.88
2024-02-27T08:31:15.884Z,19.01
2024-02-27T08:34:05.745Z,18.94
2024-02-27T08:36:52.579Z,18.40
2024-02-27T08:39:39.496Z,18.26
2024-02-27T08:42:27.271Z,18.18
2024-02-27T08:45:14.212Z,18.75
2024-02-27T08:48:04.291Z,19.11
2024-02-27T08:50:51.265Z,18.60
2024-02-27T08:53:38.448Z,19.33
2024-02-27T08:56:25.329Z,19.28
2024-02-27T08:59:12.286Z,19.60
2024-02-27T09:01:59.088Z,19.21
2024-02-27T09:04:47.425Z,18.92
2024-02-27T09:07:34.298Z,18.50
2024-02-27T09:10:21.753Z,19.47
2024-02-27T09:13:08.653Z,19.97
2024-02-27T09:15:55.508Z,19.45
2024-02-27T09:18:45.054Z,19.64
2024-02-27T09:21:33.909Z,18.94
2024-02-27T09:24:20.809Z,19.14
2024-02-27T09:27:07.667Z,19.15
2024-02-27T09:29:54.759Z,19.81
2024-02-27T09:32:41.810Z,20.13
2024-02-27T09:35:28.557Z,18.92
2024-02-27T09:38:17.234Z,19.39
2024-02-27T09:41:03.800Z,19.53
2024-02-27T09:43:55.780Z,19.62
2024-02-27T09:46:44.275Z,19.90
2024-02-27T09:49:37.224Z,20.19
2024-02-27T09:52:31.907Z,20.08
2024-02-27T09:55:21.703Z,18.68
2024-02-27T09:58:10.028Z,19.70
2024-02-27T10:01:07.314Z,19.35
2024-02-27T10:03:57.685Z,19.57
2024-02-27T10:06:45.347Z,20.02
2024-02-27T10:09:37.638Z,19.74
2024-02-27T10:12:26.301Z,20.09
2024-02-27T10:15:13.399Z,19.55
2024-02-27T10:18:00.101Z,19.87
2024-02-27T10:20:47.044Z,19.76
2024-02-27T10:23:36.835Z,19.91
2024-02-27T10:26:24.449Z,20.47
2024-02-27T10:29:14.207Z,20.06
2024-02-27T10:32:02.655Z,20.56
2024-02-27T10:34:54.953Z,20.67
2024-02-27T10:37:42.548Z,20.32
2024-02-27T10:40:31.897Z,19.85
2024-02-27T10:43:20.993Z,20.03
2024-02-27T10:46:09.325Z,20.21
2024-02-27T10:48:56.268Z,19.94
2024-02-27T10:51:44.211Z,20.64
2024-02-27T10:54:34.576Z,20.51
2024-02-27T10:57:21.737Z,20.25
2024-02-27T11:00:12.233Z,20.75
2024-02-27T11:03:02.466Z,19.97
2024-02-27T11:05:50.069Z,19.44
2024-02-27T11:08:38.116Z,19.74
2024-02-27T11:11:26.544Z,19.79
2024-02-27T11:14:15.804Z,19.61
2024-02-27T11:17:07.076Z,19.24
2024-02-27T11:19:55.607Z,20.45
2024-02-27T11:22:43.453Z,20.27
2024-02-27T11:25:31.110Z,20.57
2024-02-27T11:28:20.150Z,20.35
2024-02-27T11:31:07.173Z,20.32
2024-02-27T11:33:54.434Z,19.60
2024-02-27T11:36:42.567Z,19.39
2024-02-27T11:39:32.855Z,19.10
2024-02-27T11:42:26.584Z,20.36
2024-02-27T11:45:15.662Z,20.39
2024-02-27T11:48:02.876Z,20.23
2024-02-27T11:50:50.119Z,20.35
2024-02-27T11:53:40.294Z,20.85
2024-02-27T11:56:27.507Z,21.00
2024-02-27T11:59:14.233Z,20.61
2024-02-27T12:02:04.290Z,20.89
2024-02-27T12:04:52.785Z,20.49
2024-02-27T12:07:39.499Z,20.76
2024-02-27T12:10:27.831Z,20.47
2024-02-27T12:13:17.291Z,19.66
2024-02-27T12:16:04.007Z,20.75
2024-02-27T12:18:50.916Z,21.12
2024-02-27T12:21:37.798Z,20.58
2024-02-27T12:24:24.498Z,20.40
2024-02-27T12:27:15.846Z,20.76
2024-02-27T12:30:06.449Z,21.28
2024-02-27T12:32:53.980Z,20.94
2024-02-27T12:35:40.311Z,20.11
2024-02-27T12:38:27.415Z,19.49
2024-02-27T12:41:14.404Z,20.19
2024-02-27T12:44:02.917Z,19.70
2024-02-27T12:46:49.854Z,19.91
2024-02-27T12:49:37.111Z,20.64
2024-02-27T12:52:23.785Z,20.57
2024-02-27T12:55:14.062Z,20.15
2024-02-27T12:58:00.704Z,19.83
2024-02-27T13:00:49.680Z,20.43
2024-02-27T13:03:37.726Z,20.04
2024-02-27T13:06:24.657Z,19.81
2024-02-27T13:09:12.384Z,19.60
2024-02-27T13:12:07.360Z,19.16
2024-02-27T13:14:54.261Z,19.23
2024-02-27T13:17:42.602Z,20.04
2024-02-27T13:20:29.746Z,20.14
2024-02-27T13:23:24.522Z,19.37
2024-02-27T13:26:13.099Z,19.50
2024-02-27T13:29:00.114Z,19.63
2024-02-27T13:31:47.286Z,18.98
2024-02-27T13:34:35.406Z,19.37
2024-02-27T13:37:22.101Z,18.81
2024-02-27T13:40:10.122Z,18.85
2024-02-27T13:42:57.422Z,18.84
2024-02-27T13:45:44.146Z,18.83
2024-02-27T13:48:30.743Z,19.67
2024-02-27T13:51:19.155Z,18.54
2024-02-27T13:54:07.493Z,19.63
2024-02-27T13:56:54.335Z,19.10
2024-02-27T13:59:41.157Z,19.02
2024-02-27T14:02:28.183Z,18.32
2024-02-27T14:05:15.215Z,18.21
2024-02-27T14:08:03.230Z,18.51
2024-02-27T14:10:50.456Z,18.71
2024-02-27T14:13:39.878Z,18.35
2024-02-27T14:16:27.962Z,18.32
2024-02-27T14:19:15.008Z,17.76
2024-02-27T14:22:01.731Z,18.64
2024-02-27T14:24:50.041Z,18.57
2024-02-27T14:27:36.882Z,18.41
2024-02-27T14:30:24.045Z,18.70
2024-02-27T14:33:10.730Z,18.82
2024-02-27T14:35:57.470Z,19.41
2024-02-27T14:38:44.523Z,19.91
2024-02-27T14:41:32.637Z,19.87
2024-02-27T14:44:19.615Z,19.76
2024-02-27T14:47:06.676Z,19.30
2024-02-27T14:49:53.697Z,19.69
2024-02-27T14:52:40.717Z,19.50
2024-02-27T14:55:27.541Z,19.24
2024-02-27T14:58:18.142Z,19.59
2024-02-27T15:01:08.178Z,19.27
2024-02-27T15:03:57.816Z,18.97
2024-02-27T15:06:45.686Z,19.06
2024-02-27T15:09:32.490Z,19.14
2024-02-27T15:12:21.155Z,19.49
2024-02-27T15:15:10.020Z,18.90
2024-02-27T15:17:56.893Z,18.56
2024-02-27T15:20:43.708Z,19.18
2024-02-27T15:23:31.505Z,19.18
2024-02-27T15:26:18.484Z,18.93
2024-02-27T15:29:05.385Z,19.33
2024-02-27T15:31:53.691Z,19.32
2024-02-27T15:34:41.078Z,19.64
2024-02-27T15:37:28.057Z,19.62
2024-02-27T15:40:15.592Z,19.70
2024-02-27T15:43:02.626Z,18.91
2024-02-27T15:45:49.649Z,18.91
2024-02-27T15:48:38.394Z,19.15
2024-02-27T15:51:25.657Z,19.30
2024-02-27T15:54:12.994Z,18.97
2024-02-27T15:56:59.481Z,19.26
2024-02-27T15:59:46.650Z,18.83
2024-02-27T16:02:34.077Z,19.45
2024-02-27T16:05:28.190Z,19.39
2024-02-27T16:08:14.949Z,19.12
2024-02-27T16:11:02.946Z,19.66
2024-02-27T16:13:49.693Z,18.70
2024-02-27T16:16:36.741Z,18.92
2024-02-27T16:19:23.439Z,19.37
2024-02-27T16:22:13.213Z,18.58
2024-02-27T16:25:00.046Z,19.44
2024-02-27T16:27:46.906Z,19.49
2024-02-27T16:30:34.028Z,19.68
2024-02-27T16:33:21.150Z,18.98
2024-02-27T16:36:09.191Z,19.60
2024-02-27T16:38:57.472Z,18.62
2024-02-27T16:41:44.513Z,19.27
2024-02-27T16:44:31.185Z,19.54
2024-02-27T16:47:19.473Z,19.40
2024-02-27T16:50:07.286Z,18.41
2024-02-27T16:52:54.469Z,18.58
2024-02-27T16:55:43.165Z,18.89
2024-02-27T16:58:29.644Z,19.01
2024-02-27T17:01:16.712Z,19.35
2024-02-27T17:04:03.662Z,19.52
2024-02-27T17:06:50.606Z,19.30
2024-02-27T17:09:37.530Z,19.26
2024-02-27T17:12:25.897Z,19.08
2024-02-27T17:15:13.319Z,19.29
2024-02-27T17:18:00.161Z,19.06
2024-02-27T17:20:47.066Z,18.43
2024-02-27T17:23:34.053Z,19.18
2024-02-27T17:26:20.926Z,18.75
2024-02-27T17:29:09.108Z,18.94
2024-02-27T17:31:56.167Z,19.05
2024-02-27T17:34:43.423Z,18.99
2024-02-27T17:37:30.400Z,19.30
2024-02-27T17:40:17.513Z,18.99
2024-02-27T17:43:04.353Z,19.43
2024-02-27T17:45:52.542Z,19.36
2024-02-27T17:48:39.618Z,19.62
2024-02-27T17:51:26.431Z,19.30
2024-02-27T17:54:13.522Z,19.63
2024-02-27T17:57:00.188Z,18.85
2024-02-27T17:59:47.555Z,19.24
2024-02-27T18:02:35.789Z,19.03
2024-02-27T18:05:22.747Z,19.12
2024-02-27T18:08:09.583Z,19.21
2024-02-27T18:10:56.652Z,18.64
2024-02-27T18:13:43.410Z,18.87
2024-02-27T18:16:30.568Z,19.18
2024-02-27T18:19:19.207Z,18.84
2024-02-27T18:22:07.074Z,18.83
2024-02-27T18:24:54.012Z,18.95
2024-02-27T18:27:41.305Z,18.60
2024-02-27T18:30:28.471Z,18.81
2024-02-27T18:33:16.458Z,19.33
2024-02-27T18:36:04.687Z,19.02
2024-02-27T18:38:51.238Z,19.22
2024-02-27T18:41:38.387Z,19.19
2024-02-27T18:44:25.616Z,19.08
2024-02-27T18:47:12.948Z,19.22
2024-02-27T18:50:03.165Z,18.99
2024-02-27T18:52:51.463Z,19.09
2024-02-27T18:55:38.631Z,19.06
2024-02-27T18:58:25.622Z,19.03
2024-02-27T19:01:12.517Z,19.08
2024-02-27T19:03:59.495Z,19.07
2024-02-27T19:06:46.667Z,18.84
2024-02-27T19:09:34.932Z,18.92
2024-02-27T19:12:23.773Z,18.78
2024-02-27T19:15:10.989Z,19.03
2024-02-27T19:17:58.561Z,19.03
2024-02-27T19:20:45.471Z,18.89
2024-02-27T19:23:32.339Z,18.90
2024-02-27T19:26:20.507Z,19.13
2024-02-27T19:29:07.369Z,19.47
2024-02-27T19:31:54.570Z,19.26
2024-02-27T19:34:41.391Z,19.21
2024-02-27T19:37:28.108Z,19.23
2024-02-27T19:40:16.247Z,18.99
2024-02-27T19:43:04.252Z,19.51
2024-02-27T19:45:51.261Z,19.33
2024-02-27T19:48:38.088Z,19.27
2024-02-27T19:51:25.021Z,19.13
2024-02-27T19:54:11.925Z,19.24
2024-02-27T19:56:58.784Z,19.20
2024-02-27T19:59:48.385Z,19.63
2024-02-27T20:02:35.069Z,19.84
2024-02-27T20:05:21.908Z,19.29
2024-02-27T20:08:08.849Z,18.85
2024-02-27T20:10:55.628Z,19.01
2024-02-27T20:13:42.858Z,18.88
2024-02-27T20:16:30.987Z,19.13
2024-02-27T20:19:17.688Z,18.77
2024-02-27T20:22:04.755Z,18.81
2024-02-27T20:24:51.584Z,18.60
2024-02-27T20:27:38.687Z,18.50
2024-02-27T20:30:26.802Z,18.72
2024-02-27T20:33:14.863Z,18.76
2024-02-27T20:36:02.241Z,18.54
2024-02-27T20:38:49.224Z,18.69
2024-02-27T20:41:36.304Z,18.98
2024-02-27T20:44:22.703Z,18.85
2024-02-27T20:47:09.662Z,18.59
2024-02-27T20:49:57.903Z,18.46
2024-02-27T20:52:44.817Z,18.51
2024-02-27T20:55:31.890Z,18.62
2024-02-27T20:58:18.800Z,18.83
2024-02-27T21:01:05.760Z,18.81
2024-02-27T21:03:52.596Z,18.58
2024-02-27T21:06:40.738Z,18.71
2024-02-27T21:09:27.615Z,18.61
2024-02-27T21:12:14.267Z,18.46
2024-02-27T21:15:02.067Z,18.78
2024-02-27T21:17:48.885Z,18.93
2024-02-27T21:20:37.974Z,18.25
2024-02-27T21:23:26.310Z,18.52
2024-02-27T21:26:13.225Z,18.41
2024-02-27T21:28:59.877Z,18.41
2024-02-27T21:31:47.797Z,18.74
2024-02-27T21:34:34.872Z,18.66
2024-02-27T21:37:21.646Z,18.49
2024-02-27T21:40:11.571Z,18.59
2024-02-27T21:42:58.656Z,18.81
2024-02-27T21:45:45.643Z,18.10
2024-02-27T21:48:32.206Z,18.33
2024-02-27T21:51:19.106Z,18.68
2024-02-27T21:54:05.975Z,18.70
2024-02-27T21:56:54.131Z,18.89
2024-02-27T21:59:43.090Z,18.39
2024-02-27T22:02:29.900Z,18.37
2024-02-27T22:05:18.348Z,18.51
2024-02-27T22:08:06.468Z,18.79
2024-02-27T22:10:53.123Z,18.79
2024-02-27T22:13:41.404Z,18.88
2024-02-27T22:16:28.161Z,18.79
2024-02-27T22:19:14.948Z,18.92
2024-02-27T22:22:01.868Z,18.66
2024-02-27T22:24:48.901Z,19.14
2024-02-27T22:27:35.659Z,19.22
2024-02-27T22:30:23.924Z,18.83
2024-02-27T22:33:11.788Z,18.33
2024-02-27T22:35:58.586Z,18.39
2024-02-27T22:38:45.506Z,18.50
2024-02-27T22:41:32.460Z,18.69
2024-02-27T22:44:19.285Z,19.15
2024-02-27T22:47:08.352Z,18.96
2024-02-27T22:49:55.183Z,18.62
2024-02-27T22:52:42.065Z,18.49
2024-02-27T22:55:28.845Z,19.21
2024-02-27T22:58:17.243Z,19.15
2024-02-27T23:01:04.242Z,19.08
2024-02-27T23:03:52.347Z,19.06
2024-02-27T23:06:39.611Z,18.65
2024-02-27T23:09:26.720Z,18.65
2024-02-27T23:12:13.661Z,18.93
2024-02-27T23:15:00.754Z,19.27
2024-02-27T23:17:47.983Z,18.78
2024-02-27T23:20:36.245Z,18.84
2024-02-27T23:23:23.034Z,18.75
2024-02-27T23:26:09.958Z,17.97
2024-02-27T23:28:56.741Z,17.91
2024-02-27T23:31:43.601Z,18.32
2024-02-27T23:34:30.485Z,18.24
2024-02-27T23:37:18.836Z,18.66
2024-02-27T23:40:06.947Z,18.68
2024-02-27T23:42:53.890Z,18.48
2024-02-27T23:45:40.736Z,18.66
2024-02-27T23:48:27.541Z,18.55
2024-02-27T23:51:14.414Z,18.57
2024-02-27T23:54:02.528Z,18.15
2024-02-27T23:56:49.542Z,18.44
2024-02-27T23:59:36.368Z,18.39
